Time;durP1;ratioP1;P1;durP2;ratioP2;P2;SDS_P1;SDS_P2;PMS_P1;PMS_P2;Temp;Humidity;BMP_temperature;BMP_pressure;BME280_temperature;BME280_humidity;BME280_pressure;Samples;Min_cycle;Max_cycle;Signal;HPM_P1;HPM_P2
2021/11/03 00:00:32;;;;;;;10.73;9.73;;;5.50;99.90;;;;;;2678057;28;20644;-68
2021/11/03 00:01:52;;;;;;;10.35;9.45;;;5.50;99.90;;;;;;2683838;22;20213;-69
2021/11/03 00:03:13;;;;;;;10.65;9.65;;;5.60;99.90;;;;;;2690569;28;20203;-68
2021/11/03 00:04:33;;;;;;;8.65;7.93;;;5.60;99.90;;;;;;2690211;28;20654;-68
2021/11/03 00:05:54;;;;;;;10.27;9.40;;;5.60;99.90;;;;;;2690275;28;20197;-68
2021/11/03 00:07:14;;;;;;;10.10;9.13;;;5.70;99.90;;;;;;2691140;22;20253;-68
2021/11/03 00:08:32;;;;;;;8.85;8.05;;;5.70;99.90;;;;;;2679465;28;20643;-68
2021/11/03 00:09:52;;;;;;;9.68;8.88;;;5.70;99.90;;;;;;2680157;28;20209;-68
2021/11/03 00:11:12;;;;;;;9.82;8.88;;;5.70;99.90;;;;;;2676672;28;20209;-68
2021/11/03 00:12:34;;;;;;;9.98;9.18;;;5.80;99.90;;;;;;2679670;28;20197;-68
2021/11/03 00:13:52;;;;;;;9.80;8.90;;;5.80;99.90;;;;;;2679266;28;20202;-67
2021/11/03 00:15:12;;;;;;;9.83;8.93;;;5.70;99.90;;;;;;2671112;28;20256;-68
2021/11/03 00:16:31;;;;;;;10.45;9.52;;;5.70;99.90;;;;;;2679389;28;20455;-68
2021/11/03 00:17:49;;;;;;;12.52;10.02;;;5.60;99.90;;;;;;2676954;28;20194;-68
2021/11/03 00:19:08;;;;;;;10.47;9.47;;;5.60;99.90;;;;;;2679526;28;20347;-68
2021/11/03 00:20:27;;;;;;;10.43;9.52;;;5.60;99.90;;;;;;2679127;28;20484;-68
2021/11/03 00:21:46;;;;;;;10.63;9.73;;;5.60;99.90;;;;;;2666932;28;20800;-68
2021/11/03 00:23:05;;;;;;;9.48;8.63;;;5.60;99.90;;;;;;2673986;28;20202;-67
2021/11/03 00:24:24;;;;;;;9.48;8.68;;;5.70;99.90;;;;;;2674159;28;20255;-67
2021/11/03 00:25:46;;;;;;;10.13;9.23;;;5.70;99.90;;;;;;2675467;28;20190;-68
2021/11/03 00:27:05;;;;;;;10.20;9.25;;;5.70;99.90;;;;;;2679674;28;20208;-68
2021/11/03 00:28:24;;;;;;;9.77;8.88;;;5.60;99.90;;;;;;2676490;28;20201;-68
2021/11/03 00:29:43;;;;;;;10.27;9.38;;;5.70;99.90;;;;;;2673141;28;20717;-68
2021/11/03 00:31:02;;;;;;;8.77;7.88;;;5.80;99.90;;;;;;2679024;28;20263;-67
2021/11/03 00:32:20;;;;;;;8.50;7.80;;;5.80;99.90;;;;;;2675125;28;20210;-68
2021/11/03 00:33:39;;;;;;;7.90;6.60;;;5.80;99.90;;;;;;2679207;28;20239;-68
2021/11/03 00:34:58;;;;;;;8.48;7.80;;;5.80;99.90;;;;;;2678218;28;20522;-68
2021/11/03 00:36:16;;;;;;;8.32;7.63;;;5.80;99.90;;;;;;2675437;28;20269;-67
2021/11/03 00:37:35;;;;;;;8.43;7.73;;;5.80;99.90;;;;;;2677787;28;20275;-68
2021/11/03 00:38:52;;;;;;;8.52;7.82;;;5.70;99.90;;;;;;2675977;28;20514;-68
2021/11/03 00:40:12;;;;;;;7.77;7.07;;;5.80;99.90;;;;;;2679352;28;20282;-67
2021/11/03 00:41:32;;;;;;;6.53;6.03;;;5.90;99.90;;;;;;2670799;28;20471;-68
2021/11/03 00:42:52;;;;;;;8.68;7.95;;;5.80;99.90;;;;;;2700003;22;21021;-68
2021/11/03 00:44:11;;;;;;;7.55;6.88;;;5.80;99.90;;;;;;2695820;28;20200;-68
2021/11/03 00:45:32;;;;;;;7.75;6.95;;;5.80;99.90;;;;;;2697598;28;20263;-69
2021/11/03 00:46:54;;;;;;;6.97;6.38;;;5.90;99.90;;;;;;2695121;22;20226;-68
2021/11/03 00:48:12;;;;;;;7.55;6.85;;;5.90;99.90;;;;;;2659412;28;20747;-67
2021/11/03 00:49:31;;;;;;;8.05;7.45;;;5.90;99.90;;;;;;2658433;28;20245;-68
2021/11/03 00:50:50;;;;;;;7.53;6.82;;;5.90;99.90;;;;;;2657726;28;20253;-68
2021/11/03 00:52:09;;;;;;;8.27;7.68;;;5.90;99.90;;;;;;2659633;28;20242;-67
2021/11/03 00:53:28;;;;;;;6.82;6.28;;;5.90;99.90;;;;;;2658693;28;20198;-68
2021/11/03 00:54:48;;;;;;;7.88;5.93;;;6.00;99.90;;;;;;2657811;28;20925;-68
2021/11/03 00:56:08;;;;;;;6.82;5.70;;;6.00;99.90;;;;;;2655096;28;20703;-68
2021/11/03 00:57:28;;;;;;;6.28;5.78;;;6.10;99.90;;;;;;2657630;28;20257;-67
2021/11/03 00:58:47;;;;;;;6.53;6.03;;;6.20;99.90;;;;;;2655936;28;20219;-68
2021/11/03 01:00:07;;;;;;;6.50;5.90;;;6.20;99.90;;;;;;2648468;28;20637;-67
2021/11/03 01:01:26;;;;;;;5.75;5.25;;;6.20;99.90;;;;;;2653772;28;20231;-68
2021/11/03 01:02:47;;;;;;;5.25;4.85;;;6.30;99.90;;;;;;2658156;28;20569;-68
2021/11/03 01:04:06;;;;;;;6.07;5.50;;;6.30;99.90;;;;;;2657156;28;20218;-67
2021/11/03 01:05:25;;;;;;;5.60;5.10;;;6.30;99.90;;;;;;2657554;28;20633;-67
2021/11/03 01:06:45;;;;;;;6.47;5.97;;;6.30;99.90;;;;;;2657756;28;20199;-68
2021/11/03 01:08:04;;;;;;;6.85;6.35;;;6.30;99.90;;;;;;2657982;28;20226;-67
2021/11/03 01:09:22;;;;;;;9.60;8.80;;;6.30;99.90;;;;;;2659481;28;20278;-67
2021/11/03 01:10:43;;;;;;;10.80;9.90;;;6.30;99.90;;;;;;2657181;28;20253;-68
2021/11/03 01:12:02;;;;;;;10.88;10.07;;;6.30;99.90;;;;;;2654340;28;20225;-68
2021/11/03 01:13:23;;;;;;;11.75;10.80;;;6.30;99.90;;;;;;2662286;28;20228;-68
2021/11/03 01:14:42;;;;;;;11.70;10.60;;;6.40;99.90;;;;;;2656249;28;20294;-68
2021/11/03 01:16:03;;;;;;;9.75;8.85;;;6.30;99.90;;;;;;2654818;28;20218;-68
2021/11/03 01:17:21;;;;;;;7.07;6.38;;;6.30;99.90;;;;;;2655269;28;20221;-67
2021/11/03 01:18:40;;;;;;;7.65;7.05;;;6.30;99.90;;;;;;2653210;28;20229;-68
2021/11/03 01:19:58;;;;;;;8.65;7.90;;;6.30;99.90;;;;;;2651387;28;20843;-67
2021/11/03 01:21:17;;;;;;;8.40;7.65;;;6.30;99.90;;;;;;2655613;28;20306;-68
2021/11/03 01:22:36;;;;;;;8.82;7.75;;;6.30;99.90;;;;;;2656252;28;20215;-68
2021/11/03 01:23:55;;;;;;;7.57;6.90;;;6.20;99.90;;;;;;2656633;28;20257;-68
2021/11/03 01:25:15;;;;;;;7.70;7.07;;;6.30;99.90;;;;;;2656115;28;20320;-68
2021/11/03 01:26:34;;;;;;;6.60;6.10;;;6.20;99.90;;;;;;2659973;28;20210;-68
2021/11/03 01:27:52;;;;;;;6.68;5.85;;;6.30;99.90;;;;;;2657871;28;20202;-68
2021/11/03 01:29:12;;;;;;;5.13;4.70;;;6.30;99.90;;;;;;2658374;28;20218;-68
2021/11/03 01:30:31;;;;;;;6.57;5.97;;;6.30;99.90;;;;;;2659812;28;20203;-68
2021/11/03 01:31:50;;;;;;;5.75;5.35;;;6.30;99.90;;;;;;2659212;28;20195;-67
2021/11/03 01:33:09;;;;;;;5.40;4.90;;;6.30;99.90;;;;;;2658582;28;20207;-68
2021/11/03 01:34:28;;;;;;;5.72;5.22;;;6.40;99.90;;;;;;2658745;28;20203;-68
2021/11/03 01:35:47;;;;;;;6.20;5.70;;;6.40;99.90;;;;;;2656705;28;20207;-69
2021/11/03 01:37:06;;;;;;;6.18;5.60;;;6.40;99.90;;;;;;2658671;28;20253;-68
2021/11/03 01:38:24;;;;;;;5.88;5.38;;;6.40;99.90;;;;;;2655669;28;20203;-68
2021/11/03 01:39:42;;;;;;;5.77;5.37;;;6.40;99.90;;;;;;2664387;28;20264;-68
2021/11/03 01:41:01;;;;;;;5.50;5.10;;;6.40;99.90;;;;;;2657598;28;21073;-67
2021/11/03 01:42:20;;;;;;;5.97;5.38;;;6.40;99.90;;;;;;2660619;28;20448;-68
2021/11/03 01:43:41;;;;;;;5.53;5.13;;;6.40;99.90;;;;;;2660821;28;20206;-68
2021/11/03 01:45:01;;;;;;;5.35;4.90;;;6.40;99.90;;;;;;2656574;28;20210;-68
2021/11/03 01:46:26;;;;;;;5.80;5.40;;;6.40;99.90;;;;;;2660896;28;20768;-68
2021/11/03 01:47:47;;;;;;;5.88;5.10;;;6.40;99.90;;;;;;2662501;28;20426;-68
2021/11/03 01:49:16;;;;;;;4.82;4.43;;;6.50;99.90;;;;;;2656047;28;20207;-68
2021/11/03 01:50:41;;;;;;;4.50;4.20;;;6.50;99.90;;;;;;2660660;28;20272;-68
2021/11/03 01:52:03;;;;;;;4.82;4.45;;;6.50;99.90;;;;;;2656293;28;20250;-68
2021/11/03 01:53:25;;;;;;;5.60;5.18;;;6.50;99.90;;;;;;2659819;28;20294;-68
2021/11/03 01:54:46;;;;;;;4.80;4.40;;;6.50;99.90;;;;;;2656281;28;20199;-68
2021/11/03 01:56:08;;;;;;;6.45;6.05;;;6.40;99.90;;;;;;2657880;28;20265;-67
2021/11/03 01:57:31;;;;;;;5.63;5.22;;;6.50;99.90;;;;;;2654148;28;20203;-67
2021/11/03 01:59:00;;;;;;;5.65;5.25;;;6.60;99.90;;;;;;2655701;28;20195;-68
2021/11/03 02:00:26;;;;;;;7.22;6.72;;;6.70;99.90;;;;;;2657554;28;20967;-68
2021/11/03 02:01:46;;;;;;;6.13;5.63;;;6.70;99.90;;;;;;2657254;28;20231;-67
2021/11/03 02:03:08;;;;;;;10.02;5.35;;;6.70;99.90;;;;;;2652860;28;20723;-68
2021/11/03 02:04:27;;;;;;;6.20;5.35;;;6.60;99.90;;;;;;2654533;28;20265;-68
2021/11/03 02:05:49;;;;;;;5.30;4.80;;;6.50;99.90;;;;;;2655475;28;20851;-68
2021/11/03 02:07:14;;;;;;;5.18;4.68;;;6.50;99.90;;;;;;2655329;28;20257;-68
2021/11/03 02:08:35;;;;;;;6.05;5.47;;;6.50;99.90;;;;;;2658268;28;20866;-68
2021/11/03 02:09:55;;;;;;;5.53;4.93;;;6.40;99.90;;;;;;2657659;28;20265;-68
2021/11/03 02:11:15;;;;;;;4.38;3.97;;;6.40;99.90;;;;;;2658289;28;20202;-68
2021/11/03 02:12:33;;;;;;;4.70;4.30;;;6.40;99.90;;;;;;2657471;28;20317;-68
2021/11/03 02:13:52;;;;;;;4.77;4.37;;;6.40;99.90;;;;;;2656956;28;20261;-68
2021/11/03 02:15:13;;;;;;;5.20;4.80;;;6.40;99.90;;;;;;2656438;28;20576;-67
2021/11/03 02:16:34;;;;;;;4.47;4.18;;;6.40;99.90;;;;;;2662939;28;20206;-68
2021/11/03 02:17:57;;;;;;;4.47;4.18;;;6.30;99.90;;;;;;2673500;22;20237;-68
2021/11/03 02:19:23;;;;;;;5.45;5.05;;;6.30;99.90;;;;;;2667510;28;20256;-68
2021/11/03 02:20:42;;;;;;;5.18;4.75;;;6.30;99.90;;;;;;2661986;28;20203;-68
2021/11/03 02:22:08;;;;;;;5.05;4.60;;;6.30;99.90;;;;;;2667628;28;20234;-67
2021/11/03 02:23:34;;;;;;;5.15;4.57;;;6.40;99.90;;;;;;2664947;28;20252;-67
2021/11/03 02:24:59;;;;;;;4.82;4.32;;;6.50;99.90;;;;;;2662362;28;20627;-67
2021/11/03 02:26:22;;;;;;;4.95;4.60;;;6.50;99.90;;;;;;2665184;28;20290;-67
2021/11/03 02:27:44;;;;;;;5.45;5.05;;;6.50;99.90;;;;;;2686046;22;20233;-67
2021/11/03 02:29:06;;;;;;;7.40;6.57;;;6.50;99.90;;;;;;2688289;28;20772;-67
2021/11/03 02:30:27;;;;;;;9.40;7.22;;;6.40;99.90;;;;;;2688131;28;20209;-67
2021/11/03 02:33:18;;;;;;;6.18;5.68;;;6.30;99.90;;;;;;2686813;26;20220;-67
2021/11/03 02:34:36;;;;;;;6.32;5.82;;;6.30;99.90;;;;;;2688316;28;20880;-67
2021/11/03 02:36:01;;;;;;;6.10;5.60;;;6.20;99.90;;;;;;2689083;28;20196;-67
2021/11/03 02:37:48;;;;;;;6.50;5.90;;;6.20;99.90;;;;;;2689352;22;20573;-66
2021/11/03 02:39:08;;;;;;;6.82;6.28;;;6.20;99.90;;;;;;2664381;28;20198;-66
2021/11/03 02:40:49;;;;;;;7.47;5.55;;;6.10;99.90;;;;;;2678235;28;20255;-67
2021/11/03 02:42:09;;;;;;;5.00;4.60;;;6.10;99.90;;;;;;2673482;28;20643;-66
2021/11/03 02:43:32;;;;;;;6.15;5.55;;;6.20;99.90;;;;;;2677508;28;20213;-67
2021/11/03 02:44:53;;;;;;;5.25;4.85;;;6.30;99.90;;;;;;2675689;28;20205;-67
2021/11/03 02:46:13;;;;;;;5.38;4.38;;;6.30;99.90;;;;;;2678087;28;20216;-66
2021/11/03 02:47:31;;;;;;;6.03;5.00;;;6.30;99.90;;;;;;2677808;28;20198;-67
2021/11/03 02:48:50;;;;;;;5.13;4.73;;;6.30;99.90;;;;;;2677012;28;20659;-67
2021/11/03 02:50:09;;;;;;;8.90;5.47;;;6.30;99.90;;;;;;2680189;28;20479;-66
2021/11/03 02:51:34;;;;;;;6.53;6.00;;;6.30;99.90;;;;;;2677243;28;20601;-66
2021/11/03 02:52:52;;;;;;;9.60;8.80;;;6.30;99.90;;;;;;2680425;28;20232;-66
2021/11/03 02:54:13;;;;;;;8.07;7.30;;;6.30;99.90;;;;;;2679446;28;20241;-66
2021/11/03 02:55:31;;;;;;;7.70;7.00;;;6.30;99.90;;;;;;2679679;28;20478;-66
2021/11/03 02:56:57;;;;;;;9.10;8.40;;;6.40;99.90;;;;;;2680078;28;20210;-66
2021/11/03 02:58:15;;;;;;;7.00;6.50;;;6.40;99.90;;;;;;2675823;28;20210;-66
2021/11/03 02:59:35;;;;;;;9.13;8.43;;;6.40;99.90;;;;;;2680131;28;20690;-66
2021/11/03 03:00:54;;;;;;;9.50;8.70;;;6.40;99.90;;;;;;2680327;28;20206;-66
2021/11/03 03:02:13;;;;;;;8.52;7.70;;;6.50;99.90;;;;;;2679318;28;20237;-66
2021/11/03 03:03:31;;;;;;;9.70;8.85;;;6.50;99.90;;;;;;2679986;28;20202;-66
2021/11/03 03:04:53;;;;;;;11.87;10.87;;;6.50;99.90;;;;;;2679660;28;20285;-66
2021/11/03 03:06:16;;;;;;;12.55;11.65;;;6.50;99.90;;;;;;2679582;28;20447;-66
2021/11/03 03:07:35;;;;;;;10.82;9.90;;;6.50;99.90;;;;;;2678645;28;20292;-66
2021/11/03 03:08:56;;;;;;;9.55;8.75;;;6.50;99.90;;;;;;2679865;28;20206;-66
2021/11/03 03:10:16;;;;;;;7.97;7.28;;;6.50;99.90;;;;;;2680450;28;20815;-66
2021/11/03 03:11:39;;;;;;;7.35;6.75;;;6.50;99.90;;;;;;2675799;28;20285;-67
2021/11/03 03:12:59;;;;;;;6.45;5.90;;;6.50;99.90;;;;;;2680243;28;20213;-66
2021/11/03 03:14:19;;;;;;;6.85;6.25;;;6.50;99.90;;;;;;2679074;28;20492;-66
2021/11/03 03:15:37;;;;;;;7.72;7.13;;;6.50;99.90;;;;;;2678369;28;20206;-66
2021/11/03 03:16:56;;;;;;;6.30;5.70;;;6.50;99.90;;;;;;2673160;28;20699;-67
2021/11/03 03:18:15;;;;;;;7.57;6.72;;;6.50;99.90;;;;;;2678023;28;20566;-66
2021/11/03 03:19:34;;;;;;;7.13;6.53;;;6.60;99.90;;;;;;2680015;28;20592;-66
2021/11/03 03:20:52;;;;;;;6.82;6.22;;;6.50;99.90;;;;;;2678488;28;20202;-67
2021/11/03 03:22:12;;;;;;;6.73;6.13;;;6.50;99.90;;;;;;2679949;28;20725;-66
2021/11/03 03:23:31;;;;;;;6.95;6.13;;;6.50;99.90;;;;;;2672912;28;20460;-67
2021/11/03 03:24:49;;;;;;;8.20;6.15;;;6.50;99.90;;;;;;2676848;28;20201;-66
2021/11/03 03:26:12;;;;;;;6.72;6.13;;;6.50;99.90;;;;;;2679092;28;20746;-66
2021/11/03 03:27:31;;;;;;;7.10;6.40;;;6.50;99.90;;;;;;2680069;28;20204;-67
2021/11/03 03:28:51;;;;;;;8.75;6.50;;;6.50;99.90;;;;;;2687777;28;20197;-67
2021/11/03 03:30:10;;;;;;;6.65;6.05;;;6.40;99.90;;;;;;2677681;28;20210;-66
2021/11/03 03:31:30;;;;;;;8.30;7.20;;;6.40;99.90;;;;;;2677985;28;20189;-67
2021/11/03 03:32:47;;;;;;;7.35;6.53;;;6.40;99.90;;;;;;2679734;28;20263;-67
2021/11/03 03:34:09;;;;;;;6.60;6.00;;;6.40;99.90;;;;;;2677902;28;20268;-66
2021/11/03 03:35:28;;;;;;;7.55;6.85;;;6.40;99.90;;;;;;2678855;28;20460;-67
2021/11/03 03:36:48;;;;;;;8.48;7.50;;;6.40;99.90;;;;;;2678243;28;20201;-66
2021/11/03 03:38:07;;;;;;;8.05;7.18;;;6.30;99.90;;;;;;2674693;28;20209;-67
2021/11/03 03:39:26;;;;;;;8.10;7.40;;;6.30;99.90;;;;;;2679649;28;20227;-67
2021/11/03 03:40:47;;;;;;;8.13;7.20;;;6.30;99.90;;;;;;2676037;28;20209;-66
2021/11/03 03:42:08;;;;;;;9.82;8.10;;;6.30;99.90;;;;;;2677924;28;20922;-66
2021/11/03 03:43:30;;;;;;;8.73;7.93;;;6.30;99.90;;;;;;2679465;28;20220;-67
2021/11/03 03:44:51;;;;;;;7.80;7.10;;;6.30;99.90;;;;;;2672103;28;20307;-66
2021/11/03 03:46:09;;;;;;;9.43;8.43;;;6.40;99.90;;;;;;2679601;28;20208;-66
2021/11/03 03:47:32;;;;;;;8.80;8.00;;;6.40;99.90;;;;;;2686822;22;20225;-67
2021/11/03 03:48:52;;;;;;;10.57;8.90;;;6.30;99.90;;;;;;2677713;28;20225;-67
2021/11/03 03:50:11;;;;;;;8.30;7.50;;;6.30;99.90;;;;;;2679577;28;20642;-68
2021/11/03 03:51:29;;;;;;;9.77;8.88;;;6.30;99.90;;;;;;2678344;28;20262;-67
2021/11/03 03:52:48;;;;;;;9.63;8.70;;;6.30;99.90;;;;;;2690855;22;21054;-66
2021/11/03 03:54:06;;;;;;;8.43;7.63;;;6.30;99.90;;;;;;2690363;28;20501;-67
2021/11/03 03:55:25;;;;;;;8.63;7.82;;;6.30;99.90;;;;;;2690305;28;20236;-67
2021/11/03 03:56:43;;;;;;;9.35;8.45;;;6.30;99.90;;;;;;2690142;28;20201;-67
2021/11/03 03:58:02;;;;;;;10.10;9.10;;;6.20;99.90;;;;;;2687904;22;20242;-67
2021/11/03 03:59:20;;;;;;;8.85;7.95;;;6.20;99.90;;;;;;2680239;28;20263;-68
2021/11/03 04:00:44;;;;;;;8.27;7.47;;;6.30;99.90;;;;;;2675814;28;20201;-67
2021/11/03 04:02:03;;;;;;;8.60;7.80;;;6.30;99.90;;;;;;2686697;22;20286;-67
2021/11/03 04:03:21;;;;;;;10.85;8.35;;;6.40;99.90;;;;;;2689929;28;20286;-66
2021/11/03 04:04:40;;;;;;;9.97;8.97;;;6.30;99.90;;;;;;2689696;28;20296;-66
2021/11/03 04:05:59;;;;;;;10.18;8.50;;;6.30;99.90;;;;;;2689345;28;20999;-66
2021/11/03 04:07:18;;;;;;;10.43;7.90;;;6.30;99.90;;;;;;2690602;22;20985;-67
2021/11/03 04:08:36;;;;;;;9.30;8.35;;;6.30;99.90;;;;;;2668931;28;20268;-67
2021/11/03 04:09:57;;;;;;;12.77;11.60;;;6.20;99.90;;;;;;2669294;28;20210;-67
2021/11/03 04:11:15;;;;;;;12.05;10.95;;;6.30;99.90;;;;;;2668296;28;20276;-67
2021/11/03 04:12:33;;;;;;;13.48;12.07;;;6.30;99.90;;;;;;2686868;22;20224;-66
2021/11/03 04:13:55;;;;;;;13.65;11.45;;;6.30;99.90;;;;;;2690523;28;20205;-66
2021/11/03 04:15:15;;;;;;;11.75;10.65;;;6.30;99.90;;;;;;2689593;28;20212;-66
2021/11/03 04:16:35;;;;;;;11.00;9.90;;;6.30;99.90;;;;;;2690631;28;20209;-66
2021/11/03 04:17:55;;;;;;;12.95;10.85;;;6.20;99.90;;;;;;2690076;28;20207;-66
2021/11/03 04:19:14;;;;;;;12.63;11.50;;;6.20;99.90;;;;;;2689877;28;20205;-66
2021/11/03 04:20:32;;;;;;;13.52;12.25;;;6.30;99.90;;;;;;2690104;28;20299;-66
2021/11/03 04:21:51;;;;;;;17.73;16.10;;;6.30;99.90;;;;;;2689293;28;20743;-66
2021/11/03 04:23:11;;;;;;;21.00;18.90;;;6.30;99.90;;;;;;2690251;28;20640;-66
2021/11/03 04:24:30;;;;;;;18.10;16.50;;;6.30;99.90;;;;;;2686283;28;20197;-66
2021/11/03 04:25:50;;;;;;;11.68;10.50;;;6.40;99.90;;;;;;2689630;28;20204;-66
2021/11/03 04:27:13;;;;;;;13.02;11.80;;;6.50;99.90;;;;;;2686947;22;20205;-67
2021/11/03 04:28:33;;;;;;;10.80;9.80;;;6.40;99.90;;;;;;2658311;28;20825;-67
2021/11/03 04:29:52;;;;;;;10.45;9.52;;;6.40;99.90;;;;;;2658242;28;20850;-67
2021/11/03 04:31:11;;;;;;;9.80;8.90;;;6.50;99.90;;;;;;2661530;28;20198;-67
2021/11/03 04:32:31;;;;;;;9.48;8.50;;;6.40;99.90;;;;;;2677054;22;20705;-66
2021/11/03 04:33:51;;;;;;;14.25;11.10;;;6.40;99.90;;;;;;2684831;28;20197;-66
2021/11/03 04:35:10;;;;;;;14.13;10.85;;;6.40;99.90;;;;;;2686040;28;20228;-66
2021/11/03 04:36:29;;;;;;;13.40;12.00;;;6.50;99.90;;;;;;2686732;28;20657;-66
2021/11/03 04:37:47;;;;;;;14.10;11.55;;;6.50;99.90;;;;;;2686797;28;20255;-66
2021/11/03 04:39:10;;;;;;;18.03;13.90;;;6.50;99.90;;;;;;2685563;28;20307;-66
2021/11/03 04:40:29;;;;;;;14.38;12.77;;;6.50;99.90;;;;;;2688339;28;20443;-66
2021/11/03 04:41:49;;;;;;;12.88;11.77;;;6.50;99.90;;;;;;2689998;28;20205;-66
2021/11/03 04:43:08;;;;;;;15.07;13.50;;;6.40;99.90;;;;;;2674473;22;20249;-67
2021/11/03 04:44:26;;;;;;;12.90;11.55;;;6.40;99.90;;;;;;2664689;28;20275;-67
2021/11/03 04:45:45;;;;;;;13.82;12.13;;;6.40;99.90;;;;;;2660085;28;20215;-67
2021/11/03 04:47:05;;;;;;;15.18;13.85;;;6.50;99.90;;;;;;2677163;22;20190;-66
2021/11/03 04:48:25;;;;;;;16.10;14.40;;;6.40;99.90;;;;;;2688773;28;20270;-66
2021/11/03 04:49:44;;;;;;;13.93;12.52;;;6.40;99.90;;;;;;2687229;28;20243;-66
2021/11/03 04:51:02;;;;;;;13.82;12.63;;;6.40;99.90;;;;;;2689468;28;20209;-66
2021/11/03 04:52:20;;;;;;;15.83;14.43;;;6.40;99.90;;;;;;2689766;28;20228;-66
2021/11/03 04:53:38;;;;;;;16.17;14.63;;;6.40;99.90;;;;;;2689356;28;20516;-66
2021/11/03 04:54:57;;;;;;;14.13;12.82;;;6.40;99.90;;;;;;2685600;28;20310;-66
2021/11/03 04:56:17;;;;;;;16.23;14.55;;;6.30;99.90;;;;;;2686482;28;20258;-66
2021/11/03 04:57:36;;;;;;;16.40;14.40;;;6.40;99.90;;;;;;2688159;28;20658;-66
2021/11/03 04:58:55;;;;;;;15.20;13.15;;;6.50;99.90;;;;;;2686470;28;20915;-66
2021/11/03 05:00:18;;;;;;;11.02;10.02;;;6.50;99.90;;;;;;2689458;28;20209;-66
2021/11/03 05:01:37;;;;;;;11.80;10.70;;;6.50;99.90;;;;;;2685206;28;20217;-66
2021/11/03 05:02:55;;;;;;;10.88;9.77;;;6.30;99.90;;;;;;2689325;28;20224;-66
2021/11/03 05:04:16;;;;;;;12.82;11.15;;;6.30;99.90;;;;;;2682649;28;20209;-67
2021/11/03 05:05:35;;;;;;;12.55;11.25;;;6.30;99.90;;;;;;2689100;28;20201;-66
2021/11/03 05:06:54;;;;;;;13.50;11.52;;;6.20;99.90;;;;;;2690012;28;20228;-66
2021/11/03 05:08:12;;;;;;;16.83;10.98;;;6.20;99.90;;;;;;2689304;28;20205;-66
2021/11/03 05:09:31;;;;;;;13.80;10.37;;;6.20;99.90;;;;;;2689233;28;20232;-66
2021/11/03 05:10:49;;;;;;;10.60;9.55;;;6.20;99.90;;;;;;2689598;28;20451;-67
2021/11/03 05:12:13;;;;;;;11.60;9.55;;;6.30;99.90;;;;;;2688453;28;20893;-66
2021/11/03 05:13:32;;;;;;;11.75;10.55;;;6.30;99.90;;;;;;2688472;28;20231;-66
2021/11/03 05:14:51;;;;;;;10.77;9.80;;;6.20;99.90;;;;;;2686582;28;20204;-66
2021/11/03 05:16:12;;;;;;;12.00;10.90;;;6.30;99.90;;;;;;2688960;28;20740;-66
2021/11/03 05:17:31;;;;;;;10.70;9.70;;;6.30;99.90;;;;;;2692891;22;20225;-68
2021/11/03 05:18:50;;;;;;;9.68;8.68;;;6.20;99.90;;;;;;2683207;28;20208;-67
2021/11/03 05:20:14;;;;;;;10.63;9.52;;;6.20;99.90;;;;;;2678501;28;20539;-67
2021/11/03 05:21:36;;;;;;;10.90;9.85;;;6.30;99.90;;;;;;2678626;28;20683;-67
2021/11/03 05:23:01;;;;;;;11.18;9.95;;;6.20;99.90;;;;;;2678351;28;20269;-67
2021/11/03 05:24:23;;;;;;;10.70;9.65;;;6.20;99.90;;;;;;2673838;28;20202;-67
2021/11/03 05:25:43;;;;;;;11.77;10.57;;;6.30;99.90;;;;;;2677608;28;20212;-67
2021/11/03 05:27:01;;;;;;;10.45;9.25;;;6.30;99.90;;;;;;2678519;28;20205;-67
2021/11/03 05:28:21;;;;;;;10.80;9.75;;;6.40;99.90;;;;;;2678436;28;20205;-67
2021/11/03 05:29:40;;;;;;;11.25;10.15;;;6.30;99.90;;;;;;2676909;28;20751;-67
2021/11/03 05:30:59;;;;;;;12.93;10.20;;;6.30;99.90;;;;;;2678214;28;20282;-67
2021/11/03 05:32:18;;;;;;;10.23;9.13;;;6.40;99.90;;;;;;2677340;28;20626;-67
2021/11/03 05:33:40;;;;;;;11.40;10.23;;;6.40;99.90;;;;;;2677363;28;20578;-67
2021/11/03 05:34:59;;;;;;;11.48;8.55;;;6.30;99.90;;;;;;2677003;28;20202;-67
2021/11/03 05:36:21;;;;;;;10.73;9.65;;;6.40;99.90;;;;;;2678513;28;20592;-67
2021/11/03 05:37:40;;;;;;;10.57;8.93;;;6.40;99.90;;;;;;2677618;28;20235;-67
2021/11/03 05:39:06;;;;;;;11.95;9.88;;;6.40;99.90;;;;;;2678687;28;20201;-67
2021/11/03 05:40:28;;;;;;;8.30;7.50;;;6.40;99.90;;;;;;2691583;22;20221;-67
2021/11/03 05:41:48;;;;;;;8.43;7.72;;;6.40;99.90;;;;;;2677836;28;20201;-67
2021/11/03 05:43:07;;;;;;;8.63;7.72;;;6.50;99.90;;;;;;2692577;22;20240;-66
2021/11/03 05:44:26;;;;;;;8.35;7.55;;;6.50;99.90;;;;;;2686202;28;20189;-66
2021/11/03 05:45:44;;;;;;;9.73;8.35;;;6.60;99.90;;;;;;2688440;28;20353;-66
2021/11/03 05:47:03;;;;;;;7.77;7.07;;;6.60;99.90;;;;;;2688445;28;20346;-66
2021/11/03 05:48:26;;;;;;;8.63;7.70;;;6.60;99.90;;;;;;2689289;28;20476;-66
2021/11/03 05:49:45;;;;;;;7.75;7.05;;;6.70;99.90;;;;;;2688641;28;20617;-66
2021/11/03 05:51:03;;;;;;;7.03;6.35;;;6.70;99.90;;;;;;2688777;28;20201;-66
2021/11/03 05:52:23;;;;;;;7.33;6.53;;;6.80;99.90;;;;;;2695000;22;20228;-67
2021/11/03 05:53:42;;;;;;;7.07;6.43;;;6.80;99.90;;;;;;2685417;28;20478;-67
2021/11/03 05:55:01;;;;;;;7.05;6.32;;;6.70;99.90;;;;;;2678436;28;20209;-67
2021/11/03 05:56:20;;;;;;;7.05;6.38;;;6.70;99.90;;;;;;2678397;28;20654;-67
2021/11/03 05:57:40;;;;;;;7.25;6.65;;;6.70;99.90;;;;;;2689925;22;20278;-66
2021/11/03 05:58:59;;;;;;;7.47;5.85;;;6.70;99.90;;;;;;2688592;28;20248;-66
2021/11/03 06:00:20;;;;;;;7.18;6.57;;;6.60;99.90;;;;;;2682718;28;20262;-66
2021/11/03 06:01:39;;;;;;;6.80;6.20;;;6.60;99.90;;;;;;2675144;28;20216;-66
2021/11/03 06:02:57;;;;;;;7.95;7.18;;;6.60;99.90;;;;;;2688344;28;20233;-66
2021/11/03 06:04:17;;;;;;;6.50;5.90;;;6.70;99.90;;;;;;2688196;28;20208;-66
2021/11/03 06:05:36;;;;;;;6.43;5.88;;;6.70;99.90;;;;;;2687809;28;20201;-66
2021/11/03 06:06:54;;;;;;;7.13;6.53;;;6.70;99.90;;;;;;2686553;28;20253;-66
2021/11/03 06:08:15;;;;;;;7.95;6.45;;;6.70;99.90;;;;;;2666972;22;20230;-67
2021/11/03 06:09:34;;;;;;;7.55;6.65;;;6.70;99.90;;;;;;2657193;28;20253;-67
2021/11/03 06:10:54;;;;;;;7.13;6.43;;;6.70;99.90;;;;;;2657265;28;20207;-67
2021/11/03 06:13:40;;;;;;;8.23;5.75;;;6.80;99.90;;;;;;2665840;28;20264;-66
2021/11/03 06:15:01;;;;;;;5.15;4.75;;;6.80;99.90;;;;;;2674972;28;20213;-66
2021/11/03 06:16:20;;;;;;;6.20;5.60;;;6.90;99.90;;;;;;2675500;28;20300;-66
2021/11/03 06:17:39;;;;;;;6.05;4.72;;;6.90;99.90;;;;;;2664031;28;20202;-66
2021/11/03 06:18:58;;;;;;;5.88;5.28;;;7.00;99.90;;;;;;2660660;28;20210;-66
2021/11/03 06:20:15;;;;;;;5.20;4.70;;;7.10;99.90;;;;;;2668042;28;20276;-66
2021/11/03 06:21:34;;;;;;;5.17;4.77;;;7.10;99.90;;;;;;2666670;28;20246;-67
2021/11/03 06:22:53;;;;;;;5.30;4.80;;;7.00;99.90;;;;;;2677264;28;21001;-66
2021/11/03 06:24:13;;;;;;;6.22;5.63;;;7.00;99.90;;;;;;2667974;28;20206;-66
2021/11/03 06:25:32;;;;;;;5.20;4.80;;;6.90;99.90;;;;;;2668158;28;20647;-66
2021/11/03 06:26:51;;;;;;;5.55;4.95;;;6.90;99.90;;;;;;2664972;28;20655;-66
2021/11/03 06:28:10;;;;;;;6.00;4.40;;;6.80;99.90;;;;;;2670385;28;20226;-66
2021/11/03 06:29:31;;;;;;;5.32;4.93;;;6.80;99.90;;;;;;2665410;28;20565;-66
2021/11/03 06:30:50;;;;;;;4.90;4.50;;;6.80;99.90;;;;;;2670516;28;20190;-66
2021/11/03 06:32:09;;;;;;;5.35;4.88;;;6.90;99.90;;;;;;2668898;28;20679;-67
2021/11/03 06:33:28;;;;;;;5.10;4.65;;;6.90;99.90;;;;;;2664941;28;20210;-66
2021/11/03 06:34:46;;;;;;;4.95;4.55;;;6.90;99.90;;;;;;2670676;28;20214;-67
2021/11/03 06:36:07;;;;;;;5.07;4.30;;;6.90;99.90;;;;;;2669835;28;20313;-66
2021/11/03 06:37:26;;;;;;;4.43;4.00;;;7.00;99.90;;;;;;2672968;22;20211;-67
2021/11/03 06:38:45;;;;;;;4.03;3.22;;;7.10;99.90;;;;;;2675634;22;20241;-67
2021/11/03 06:40:11;;;;;;;5.30;3.72;;;7.20;99.90;;;;;;2660162;28;20294;-67
2021/11/03 06:41:36;;;;;;;3.90;3.60;;;7.20;99.90;;;;;;2667422;28;20660;-67
2021/11/03 06:42:56;;;;;;;4.43;4.03;;;7.20;99.90;;;;;;2667380;28;20203;-67
2021/11/03 06:44:19;;;;;;;3.88;3.60;;;7.20;99.90;;;;;;2666792;28;20214;-67
2021/11/03 06:45:38;;;;;;;9.68;5.07;;;7.20;99.90;;;;;;2659025;28;20187;-67
2021/11/03 06:46:57;;;;;;;5.30;4.82;;;7.20;99.90;;;;;;2661546;28;20218;-67
2021/11/03 06:48:16;;;;;;;5.47;5.07;;;7.20;99.90;;;;;;2684084;22;20232;-66
2021/11/03 06:49:35;;;;;;;5.22;4.72;;;7.20;99.90;;;;;;2675573;28;20198;-67
2021/11/03 06:50:53;;;;;;;5.43;5.03;;;7.30;99.90;;;;;;2676793;28;20228;-67
2021/11/03 06:52:12;;;;;;;3.95;3.65;;;7.30;99.90;;;;;;2677886;28;20267;-67
2021/11/03 06:53:32;;;;;;;4.28;3.97;;;7.30;99.90;;;;;;2671553;28;20199;-67
2021/11/03 06:54:53;;;;;;;3.83;3.63;;;7.30;99.90;;;;;;2668736;28;20279;-66
2021/11/03 06:56:13;;;;;;;3.67;3.45;;;7.50;99.90;;;;;;2678500;28;20623;-66
2021/11/03 06:57:32;;;;;;;3.42;3.10;;;7.50;99.90;;;;;;2676628;28;20206;-66
2021/11/03 06:58:51;;;;;;;4.35;3.90;;;7.60;99.90;;;;;;2679060;28;20614;-66
2021/11/03 07:00:15;;;;;;;3.58;3.15;;;7.60;99.90;;;;;;2680468;28;20793;-66
2021/11/03 07:01:34;;;;;;;3.67;3.38;;;7.60;99.90;;;;;;2680693;28;20576;-66
2021/11/03 07:02:53;;;;;;;4.00;3.70;;;7.60;99.90;;;;;;2680003;28;20213;-66